createdAt,value
2023-05-06T04:00:29.067Z,87.09
2023-05-06T04:04:31.565Z,86.86
2023-05-06T04:08:34.194Z,87.24
2023-05-06T04:12:37.471Z,87.83
2023-05-06T04:16:41.648Z,87.60
2023-05-06T04:20:44.214Z,87.68
2023-05-06T04:24:46.936Z,88.59
2023-05-06T04:28:51.496Z,89.09
2023-05-06T04:32:55.785Z,89.68
2023-05-06T04:36:59.094Z,89.25
2023-05-06T04:41:08.440Z,88.34
2023-05-06T04:45:12.297Z,87.87
2023-05-06T04:49:18.871Z,87.88
2023-05-06T04:53:21.549Z,87.28
2023-05-06T04:57:24.139Z,86.38
2023-05-06T05:01:29.200Z,86.92
2023-05-06T05:05:34.181Z,87.61
2023-05-06T05:09:37.401Z,87.98
2023-05-06T05:13:40.150Z,87.81
2023-05-06T05:17:42.832Z,88.04
2023-05-06T05:21:47.019Z,88.21
2023-05-06T05:25:50.130Z,88.62
2023-05-06T05:29:53.216Z,88.12
2023-05-06T05:33:57.032Z,88.22
2023-05-06T05:38:01.117Z,88.14
2023-05-06T05:42:04.981Z,88.10
2023-05-06T05:46:09.729Z,87.86
2023-05-06T05:50:13.852Z,86.70
2023-05-06T05:54:17.899Z,84.29
2023-05-06T05:58:21.404Z,82.84
2023-05-06T06:02:24.537Z,81.69
2023-05-06T06:06:27.349Z,79.06
2023-05-06T06:10:32.390Z,77.42
2023-05-06T06:14:38.028Z,75.60
2023-05-06T06:18:41.230Z,76.34
2023-05-06T06:22:43.861Z,76.80
2023-05-06T06:26:49.183Z,75.69
2023-05-06T06:30:52.430Z,74.48
2023-05-06T06:34:55.020Z,75.06
2023-05-06T06:38:57.569Z,74.88
2023-05-06T06:43:01.794Z,74.69
2023-05-06T06:47:24.353Z,74.57
2023-05-06T06:51:26.887Z,73.04
2023-05-06T06:55:29.527Z,73.99
2023-05-06T06:59:33.425Z,71.78
2023-05-06T07:03:36.023Z,71.91
2023-05-06T07:07:38.590Z,70.05
2023-05-06T07:11:41.130Z,69.53
2023-05-06T07:15:44.989Z,68.49
2023-05-06T07:19:47.619Z,70.64
2023-05-06T07:23:50.159Z,70.74
2023-05-06T07:27:52.738Z,69.76
2023-05-06T07:31:56.693Z,67.03
2023-05-06T07:35:59.218Z,67.63
2023-05-06T07:40:01.834Z,68.37
2023-05-06T07:44:04.976Z,67.08
2023-05-06T07:48:08.955Z,68.02
2023-05-06T07:52:11.495Z,66.70
2023-05-06T07:56:14.101Z,65.37
2023-05-06T08:00:17.624Z,65.19
2023-05-06T08:04:22.065Z,65.71
2023-05-06T08:08:27.728Z,66.54
2023-05-06T08:12:30.539Z,64.60
2023-05-06T08:16:33.204Z,66.54
2023-05-06T08:20:37.086Z,66.24
2023-05-06T08:24:39.681Z,64.84
2023-05-06T08:28:42.197Z,63.98
2023-05-06T08:32:44.810Z,63.21
2023-05-06T08:36:49.272Z,63.86
2023-05-06T08:40:53.864Z,64.37
2023-05-06T08:44:57.215Z,64.28
2023-05-06T08:48:59.970Z,63.79
2023-05-06T08:53:04.252Z,63.20
2023-05-06T08:57:07.059Z,62.73
2023-05-06T09:01:10.185Z,61.36
2023-05-06T09:05:13.128Z,60.76
2023-05-06T09:09:17.234Z,59.67
2023-05-06T09:13:20.260Z,59.32
2023-05-06T09:17:26.472Z,56.58
2023-05-06T09:21:36.694Z,56.46
2023-05-06T09:25:40.995Z,58.16
2023-05-06T09:30:00.795Z,59.69
2023-05-06T09:34:03.374Z,58.71
2023-05-06T09:38:07.316Z,58.71
2023-05-06T09:42:11.669Z,57.93
2023-05-06T09:46:14.295Z,55.55
2023-05-06T09:50:17.135Z,55.42
2023-05-06T09:54:20.421Z,54.60
2023-05-06T09:58:24.585Z,56.16
2023-05-06T10:02:28.285Z,56.80
2023-05-06T10:06:32.707Z,57.65
2023-05-06T10:10:35.885Z,56.65
2023-05-06T10:14:39.751Z,58.31
2023-05-06T10:18:43.062Z,57.97
2023-05-06T10:22:52.026Z,55.81
2023-05-06T10:26:57.374Z,55.24
2023-05-06T10:31:03.960Z,54.99
2023-05-06T10:35:13.280Z,54.65
2023-05-06T10:39:16.329Z,54.74
2023-05-06T10:43:25.186Z,54.66
2023-05-06T10:47:29.131Z,54.32
2023-05-06T10:51:32.253Z,54.83
2023-05-06T10:55:37.752Z,53.20
2023-05-06T10:59:47.691Z,51.35
2023-05-06T11:03:52.961Z,50.79
2023-05-06T11:08:09.612Z,50.12
2023-05-06T11:12:12.154Z,52.29
2023-05-06T11:16:50.757Z,53.24
2023-05-06T11:21:33.570Z,54.56
2023-05-06T11:25:43.765Z,53.75
2023-05-06T11:29:46.629Z,52.31
2023-05-06T11:33:52.398Z,53.29
2023-05-06T11:37:56.549Z,52.83
2023-05-06T11:41:59.846Z,51.37
2023-05-06T11:46:02.520Z,51.42
2023-05-06T11:50:07.544Z,49.91
2023-05-06T11:54:12.058Z,48.76
2023-05-06T11:58:16.441Z,49.82
2023-05-06T12:02:20.348Z,50.37
2023-05-06T12:06:34.759Z,51.57
2023-05-06T12:10:39.931Z,50.18
2023-05-06T12:14:42.741Z,49.60
2023-05-06T12:18:45.727Z,48.81
2023-05-06T12:23:06.282Z,49.01
2023-05-06T12:27:10.286Z,47.85
2023-05-06T12:31:20.206Z,49.60
2023-05-06T12:35:26.467Z,47.79
2023-05-06T12:39:34.929Z,49.14
2023-05-06T12:43:38.881Z,48.42
2023-05-06T12:47:53.331Z,47.50
2023-05-06T12:52:10.339Z,45.96
2023-05-06T12:56:12.884Z,46.48
2023-05-06T13:00:17.863Z,46.04
2023-05-06T13:04:20.430Z,46.42
2023-05-06T13:08:23.026Z,44.16
2023-05-06T13:12:25.691Z,44.54
2023-05-06T13:16:31.988Z,44.08
2023-05-06T13:20:34.664Z,43.20
2023-05-06T13:24:37.252Z,42.70
2023-05-06T13:28:41.128Z,43.85
2023-05-06T13:32:46.001Z,43.68
2023-05-06T13:36:49.619Z,42.62
2023-05-06T13:40:53.764Z,43.16
2023-05-06T13:44:56.385Z,44.00
2023-05-06T13:49:00.522Z,44.40
2023-05-06T13:53:03.072Z,43.76
2023-05-06T13:57:05.639Z,43.69
2023-05-06T14:01:08.299Z,41.33
2023-05-06T14:05:12.478Z,41.99
2023-05-06T14:09:15.351Z,40.97
2023-05-06T14:13:18.058Z,40.31
2023-05-06T14:17:20.749Z,40.48
2023-05-06T14:21:24.887Z,41.76
2023-05-06T14:25:27.999Z,43.33
2023-05-06T14:29:30.907Z,43.22
2023-05-06T14:33:33.475Z,43.91
2023-05-06T14:37:37.777Z,44.30
2023-05-06T14:41:40.553Z,43.94
2023-05-06T14:45:43.227Z,44.00
2023-05-06T14:49:45.849Z,44.90
2023-05-06T14:53:50.146Z,43.33
2023-05-06T14:57:52.868Z,43.06
2023-05-06T15:01:56.628Z,42.43
2023-05-06T15:05:59.284Z,40.94
2023-05-06T15:10:04.083Z,42.99
2023-05-06T15:14:06.651Z,42.53
2023-05-06T15:18:09.382Z,42.48
2023-05-06T15:22:12.033Z,44.19
2023-05-06T15:26:15.979Z,43.41
2023-05-06T15:30:19.052Z,43.04
2023-05-06T15:34:21.738Z,42.79
2023-05-06T15:38:24.297Z,41.72
2023-05-06T15:42:28.212Z,41.29
2023-05-06T15:46:32.051Z,41.77
2023-05-06T15:50:34.841Z,41.32
2023-05-06T15:54:37.822Z,41.49
2023-05-06T15:58:43.449Z,43.00
2023-05-06T16:02:46.236Z,43.73
2023-05-06T16:06:48.891Z,44.52
2023-05-06T16:10:51.978Z,45.16
2023-05-06T16:14:55.941Z,43.85
2023-05-06T16:18:58.525Z,44.38
2023-05-06T16:23:01.267Z,42.63
2023-05-06T16:27:05.540Z,42.75
2023-05-06T16:31:09.516Z,43.80
2023-05-06T16:35:12.771Z,44.43
2023-05-06T16:39:15.335Z,45.61
2023-05-06T16:43:18.897Z,46.11
2023-05-06T16:47:24.168Z,46.67
2023-05-06T16:51:26.990Z,46.84
2023-05-06T16:55:29.623Z,46.08
2023-05-06T16:59:32.198Z,46.83
2023-05-06T17:03:37.734Z,46.95
2023-05-06T17:07:40.478Z,48.40
2023-05-06T17:11:43.050Z,48.60
2023-05-06T17:15:45.571Z,49.68
2023-05-06T17:19:49.424Z,50.14
2023-05-06T17:23:54.488Z,50.39
2023-05-06T17:27:57.169Z,49.80
2023-05-06T17:32:00.493Z,51.26
2023-05-06T17:36:04.508Z,51.21
2023-05-06T17:40:08.610Z,51.89
2023-05-06T17:44:11.913Z,53.38
2023-05-06T17:48:14.466Z,53.52
2023-05-06T17:52:18.742Z,54.21
2023-05-06T17:56:21.387Z,54.70
2023-05-06T18:00:24.203Z,54.39
2023-05-06T18:04:26.810Z,55.00
2023-05-06T18:08:30.759Z,55.37
2023-05-06T18:12:33.378Z,55.74
2023-05-06T18:16:37.250Z,55.93
2023-05-06T18:20:40.616Z,56.62
2023-05-06T18:24:44.379Z,57.78
2023-05-06T18:28:46.963Z,59.02
2023-05-06T18:32:51.305Z,59.34
2023-05-06T18:36:55.363Z,59.87
2023-05-06T18:40:59.244Z,60.65
2023-05-06T18:45:04.624Z,61.86
2023-05-06T18:49:08.178Z,62.52
2023-05-06T18:53:10.688Z,63.97
2023-05-06T18:57:14.700Z,64.53
2023-05-06T19:01:17.498Z,65.07
2023-05-06T19:05:20.563Z,65.48
2023-05-06T19:09:23.093Z,66.06
2023-05-06T19:13:27.144Z,65.94
2023-05-06T19:17:29.729Z,65.90
2023-05-06T19:21:32.382Z,66.44
2023-05-06T19:25:36.882Z,68.16
2023-05-06T19:29:40.905Z,68.98
2023-05-06T19:33:43.934Z,69.32
2023-05-06T19:37:47.386Z,69.91
2023-05-06T19:41:50.284Z,70.50
2023-05-06T19:45:54.232Z,70.77
2023-05-06T19:49:56.792Z,71.29
2023-05-06T19:53:59.324Z,71.05
2023-05-06T19:58:02.250Z,71.00
2023-05-06T20:02:09.663Z,70.83
2023-05-06T20:06:12.233Z,70.74
2023-05-06T20:10:14.822Z,72.35
2023-05-06T20:14:17.311Z,73.20
2023-05-06T20:18:21.215Z,73.02
2023-05-06T20:22:23.765Z,72.92
2023-05-06T20:26:26.300Z,73.42
2023-05-06T20:30:28.918Z,73.80
2023-05-06T20:34:32.818Z,74.21
2023-05-06T20:38:35.417Z,74.89
2023-05-06T20:42:38.051Z,74.59
2023-05-06T20:46:40.621Z,75.18
2023-05-06T20:50:44.738Z,74.78
2023-05-06T20:54:47.560Z,74.40
2023-05-06T20:58:50.148Z,74.23
